Aérodrome :
LOGIN :

S'inscrire | Disclaimer

   EN    FR    IT 

 










Légende :    VFR   VFR Marginal   IFR   IFR Intensif   IFR Très Intensif
Visi : 
Plafond : 
>= 8 km
>= 3000ft
5 à 8 km
1000 à 3000 ft
1500m à 5 km
500 à 1000 ft
800 à 1500m
200 à 500 ft
< 800m
< 200 ft
Symboles :   Orages  Brouillard  Fortes neiges  Fortes précipitations  Vent > 20 kt
SIGMETs :   Divers  Orages  Givrage  Turbulence  Onde Orograph.  Cendres Volcan.






- Altitude de l'aérodrome : 580 ft


LFOA - Avord

DERNIER METAR :
  • 122030Z AUTO 02006KT CAVOK 22/17 Q1024

METARs EXPIRÉS :
  • 122000Z AUTO 04005KT CAVOK 23/17 Q1023
  • 121930Z AUTO 03007KT CAVOK 24/17 Q1023
  • 121900Z AUTO 03009KT CAVOK 25/17 Q1023
  • 121830Z AUTO 03009KT CAVOK 26/17 Q1023
  • 121800Z AUTO 02009KT CAVOK 27/17 Q1022

TAF TAF LFOA
Valide du 12 à 09h jusqu'au 13 à 09h UTC


120800Z 1209/1309 VRB02KT CAVOK TX30/1214Z TN17/1304Z
BECMG 1209/1211 04010KT



MET'MAP, la Météo Aéronautique d'un coup d'oeil ! - Copyright ORBIFLY Décembre 2007 - Disclaimer

ORBIFLY MET'MAP TEAM :

Programmation & Développement : Alexandra Zaïnal
Sur une idée originale de : Baudouin d'Aumeries
Assistance à la programmation : Marc-Olivier Méhu
Soutien technique & logistique : Manuel Goepfert

Contact : metmap@orbifly.com




SOURCES & CREDITS :

   NOAA